Time,TemperatureF,DewpointF,PressureIn,WindDirection,WindDirectionDegrees,WindSpeedMPH,WindSpeedGustMPH,Humidity,HourlyPrecipIn,Conditions,Clouds,dailyrainin,SolarRadiationWatts/m^2,SoftwareType,DateUTC
2013-07-04 00:01:00,66.0,43.0,-100.00,NE,51,6.0,22.0,44,0.00,,,0.00,0.000000,,2013-07-04 06:01:00,
2013-07-04 00:11:00,66.0,43.0,-100.00,NE,51,6.0,22.0,44,0.00,,,0.00,0.000000,,2013-07-04 06:11:00,
2013-07-04 00:22:00,66.0,43.0,-100.00,NE,51,6.0,22.0,44,0.00,,,0.00,0.000000,,2013-07-04 06:22:00,
2013-07-04 00:34:00,66.0,42.0,-100.00,ENE,62,6.0,12.0,42,0.00,,,0.00,0.000000,,2013-07-04 06:34:00,
2013-07-04 00:53:00,66.0,42.0,-100.00,ENE,62,6.0,12.0,42,0.00,,,0.00,0.000000,,2013-07-04 06:53:00,
2013-07-04 01:02:00,66.0,42.0,-100.00,ENE,62,6.0,12.0,42,0.00,,,0.00,0.000000,,2013-07-04 07:02:00,
2013-07-04 01:12:00,66.0,42.0,-100.00,ENE,62,6.0,12.0,42,0.00,,,0.00,0.000000,,2013-07-04 07:12:00,
2013-07-04 01:22:00,66.0,42.0,-100.00,ENE,62,6.0,12.0,42,0.00,,,0.00,0.000000,,2013-07-04 07:22:00,
2013-07-04 01:52:00,67.0,42.0,-100.00,NE,50,9.0,13.0,40,0.00,,,0.00,0.000000,,2013-07-04 07:52:00,
2013-07-04 02:02:00,67.0,42.0,-100.00,NE,50,9.0,13.0,40,0.00,,,0.00,0.000000,,2013-07-04 08:02:00,
2013-07-04 02:11:00,67.0,42.0,-100.00,NE,50,9.0,13.0,40,0.00,,,0.00,0.000000,,2013-07-04 08:11:00,
2013-07-04 02:22:00,67.0,42.0,-100.00,NE,50,9.0,13.0,40,0.00,,,0.00,0.000000,,2013-07-04 08:22:00,
2013-07-04 02:33:00,67.0,42.0,-100.00,NE,50,9.0,13.0,40,0.00,,,0.00,0.000000,,2013-07-04 08:33:00,
2013-07-04 03:02:00,63.0,43.0,-100.00,NE,55,9.0,16.0,48,0.00,,,0.00,0.000000,,2013-07-04 09:02:00,
2013-07-04 03:11:00,63.0,43.0,-100.00,NE,55,9.0,16.0,48,0.00,,,0.00,0.000000,,2013-07-04 09:11:00,
2013-07-04 03:22:00,63.0,43.0,-100.00,NE,55,9.0,16.0,48,0.00,,,0.00,0.000000,,2013-07-04 09:22:00,
2013-07-04 03:32:00,63.0,43.0,-100.00,NE,55,9.0,16.0,48,0.00,,,0.00,0.000000,,2013-07-04 09:32:00,
2013-07-04 03:52:00,62.0,44.0,-100.00,NE,50,11.0,14.0,52,0.00,,,0.00,0.000000,,2013-07-04 09:52:00,
2013-07-04 04:01:00,62.0,44.0,-100.00,NE,50,11.0,14.0,52,0.00,,,0.00,0.000000,,2013-07-04 10:01:00,
2013-07-04 04:11:00,62.0,44.0,-100.00,NE,50,11.0,14.0,52,0.00,,,0.00,0.000000,,2013-07-04 10:11:00,
2013-07-04 04:22:00,62.0,44.0,-100.00,NE,50,11.0,14.0,52,0.00,,,0.00,0.000000,,2013-07-04 10:22:00,
2013-07-04 04:33:00,62.0,44.0,-100.00,NE,50,11.0,14.0,52,0.00,,,0.00,0.000000,,2013-07-04 10:33:00,
2013-07-04 04:53:00,62.0,45.0,-100.00,ENE,60,14.0,20.0,53,0.00,,,0.00,0.000000,,2013-07-04 10:53:00,
2013-07-04 05:02:00,62.0,45.0,-100.00,ENE,60,14.0,20.0,53,0.00,,,0.00,0.000000,,2013-07-04 11:02:00,
2013-07-04 05:11:00,62.0,45.0,-100.00,ENE,60,14.0,20.0,53,0.00,,,0.00,0.000000,,2013-07-04 11:11:00,
2013-07-04 05:22:00,62.0,45.0,-100.00,ENE,60,14.0,20.0,53,0.00,,,0.00,0.000000,,2013-07-04 11:22:00,
2013-07-04 05:33:00,62.0,45.0,-100.00,ENE,60,14.0,20.0,53,0.00,,,0.00,0.000000,,2013-07-04 11:33:00,
2013-07-04 05:53:00,61.0,45.0,-100.00,NE,56,15.0,21.0,55,0.00,,,0.00,0.000000,,2013-07-04 11:53:00,
2013-07-04 06:02:00,61.0,45.0,-100.00,NE,56,15.0,21.0,55,0.00,,,0.00,0.000000,,2013-07-04 12:02:00,
2013-07-04 06:11:00,61.0,45.0,-100.00,NE,56,15.0,21.0,55,0.00,,,0.00,0.000000,,2013-07-04 12:11:00,
2013-07-04 06:22:00,61.0,45.0,-100.00,NE,56,15.0,21.0,55,0.00,,,0.00,0.000000,,2013-07-04 12:22:00,
2013-07-04 06:33:00,61.0,45.0,-100.00,NE,56,15.0,21.0,55,0.00,,,0.00,0.000000,,2013-07-04 12:33:00,
2013-07-04 07:02:00,62.0,45.0,-100.00,East,90,4.0,18.0,54,0.00,,,0.00,24.000000,,2013-07-04 13:02:00,
2013-07-04 07:12:00,62.0,45.0,-100.00,East,90,4.0,18.0,54,0.00,,,0.00,24.000000,,2013-07-04 13:12:00,
2013-07-04 07:23:00,62.0,45.0,-100.00,East,90,4.0,18.0,54,0.00,,,0.00,24.000000,,2013-07-04 13:23:00,
2013-07-04 07:33:00,62.0,45.0,-100.00,East,90,4.0,18.0,54,0.00,,,0.00,24.000000,,2013-07-04 13:33:00,
2013-07-04 07:53:00,61.0,44.0,-100.00,ENE,75,11.0,14.0,53,0.00,,,0.00,78.000000,,2013-07-04 13:53:00,
2013-07-04 08:02:00,61.0,44.0,-100.00,ENE,75,11.0,14.0,53,0.00,,,0.00,78.000000,,2013-07-04 14:02:00,
2013-07-04 08:11:00,61.0,44.0,-100.00,ENE,75,11.0,14.0,53,0.00,,,0.00,78.000000,,2013-07-04 14:11:00,
2013-07-04 08:22:00,61.0,44.0,-100.00,ENE,75,11.0,14.0,53,0.00,,,0.00,78.000000,,2013-07-04 14:22:00,
2013-07-04 08:33:00,61.0,44.0,-100.00,ENE,75,11.0,14.0,53,0.00,,,0.00,78.000000,,2013-07-04 14:33:00,
2013-07-04 08:53:00,67.0,44.0,-100.00,ENE,71,11.0,15.0,43,0.00,,,0.00,329.000000,,2013-07-04 14:53:00,
2013-07-04 09:02:00,67.0,44.0,-100.00,ENE,71,11.0,15.0,43,0.00,,,0.00,329.000000,,2013-07-04 15:02:00,
2013-07-04 09:11:00,67.0,44.0,-100.00,ENE,71,11.0,15.0,43,0.00,,,0.00,329.000000,,2013-07-04 15:11:00,
2013-07-04 09:23:00,67.0,44.0,-100.00,ENE,71,11.0,15.0,43,0.00,,,0.00,329.000000,,2013-07-04 15:23:00,
2013-07-04 09:33:00,67.0,44.0,-100.00,ENE,71,11.0,15.0,43,0.00,,,0.00,329.000000,,2013-07-04 15:33:00,
2013-07-04 09:53:00,70.0,43.0,-100.00,NE,50,13.0,17.0,38,0.00,,,0.00,598.000000,,2013-07-04 15:53:00,
2013-07-04 10:02:00,70.0,43.0,-100.00,NE,50,13.0,17.0,38,0.00,,,0.00,598.000000,,2013-07-04 16:02:00,
2013-07-04 10:11:00,70.0,43.0,-100.00,NE,50,13.0,17.0,38,0.00,,,0.00,598.000000,,2013-07-04 16:11:00,
2013-07-04 10:22:00,70.0,43.0,-100.00,NE,50,13.0,17.0,38,0.00,,,0.00,598.000000,,2013-07-04 16:22:00,
2013-07-04 10:33:00,70.0,43.0,-100.00,NE,50,13.0,17.0,38,0.00,,,0.00,598.000000,,2013-07-04 16:33:00,
2013-07-04 11:01:00,75.0,43.0,-100.00,NE,50,5.0,15.0,32,0.00,,,0.00,613.000000,,2013-07-04 17:01:00,
2013-07-04 11:12:00,75.0,43.0,-100.00,NE,50,5.0,15.0,32,0.00,,,0.00,613.000000,,2013-07-04 17:12:00,
2013-07-04 11:22:00,75.0,43.0,-100.00,NE,50,5.0,15.0,32,0.00,,,0.00,613.000000,,2013-07-04 17:22:00,
2013-07-04 11:33:00,75.0,43.0,-100.00,NE,50,5.0,15.0,32,0.00,,,0.00,613.000000,,2013-07-04 17:33:00,
2013-07-04 11:53:00,78.0,40.0,-100.00,East,84,5.0,10.0,26,0.00,,,0.00,674.000000,,2013-07-04 17:53:00,
2013-07-04 12:01:00,78.0,40.0,-100.00,East,84,5.0,10.0,26,0.00,,,0.00,674.000000,,2013-07-04 18:01:00,
2013-07-04 12:11:00,78.0,40.0,-100.00,East,84,5.0,10.0,26,0.00,,,0.00,674.000000,,2013-07-04 18:11:00,
2013-07-04 12:22:00,78.0,40.0,-100.00,East,84,5.0,10.0,26,0.00,,,0.00,674.000000,,2013-07-04 18:22:00,
2013-07-04 12:33:00,78.0,40.0,-100.00,East,84,5.0,10.0,26,0.00,,,0.00,674.000000,,2013-07-04 18:33:00,
2013-07-04 12:52:00,81.0,42.0,-100.00,East,90,4.0,9.0,25,0.00,,,0.00,452.000000,,2013-07-04 18:52:00,
2013-07-04 13:01:00,81.0,42.0,-100.00,East,90,4.0,9.0,25,0.00,,,0.00,452.000000,,2013-07-04 19:01:00,
2013-07-04 13:12:00,81.0,42.0,-100.00,East,90,4.0,9.0,25,0.00,,,0.00,452.000000,,2013-07-04 19:12:00,
2013-07-04 13:22:00,81.0,42.0,-100.00,East,90,4.0,9.0,25,0.00,,,0.00,452.000000,,2013-07-04 19:22:00,
2013-07-04 13:33:00,81.0,42.0,-100.00,East,90,4.0,9.0,25,0.00,,,0.00,452.000000,,2013-07-04 19:33:00,
2013-07-04 13:53:00,85.0,42.0,-100.00,SW,222,4.0,9.0,22,0.00,,,0.00,852.000000,,2013-07-04 19:53:00,
2013-07-04 14:01:00,85.0,42.0,-100.00,SW,222,4.0,9.0,22,0.00,,,0.00,852.000000,,2013-07-04 20:01:00,
2013-07-04 14:11:00,85.0,42.0,-100.00,SW,222,4.0,9.0,22,0.00,,,0.00,852.000000,,2013-07-04 20:11:00,
2013-07-04 14:22:00,85.0,42.0,-100.00,SW,222,4.0,9.0,22,0.00,,,0.00,852.000000,,2013-07-04 20:22:00,
2013-07-04 14:33:00,85.0,42.0,-100.00,SW,222,4.0,9.0,22,0.00,,,0.00,852.000000,,2013-07-04 20:33:00,
2013-07-04 14:53:00,83.0,39.0,-100.00,ENE,75,4.0,9.0,21,0.00,,,0.00,532.000000,,2013-07-04 20:53:00,
2013-07-04 15:01:00,83.0,39.0,-100.00,ENE,75,4.0,9.0,21,0.00,,,0.00,532.000000,,2013-07-04 21:01:00,
2013-07-04 15:11:00,83.0,39.0,-100.00,ENE,75,4.0,9.0,21,0.00,,,0.00,532.000000,,2013-07-04 21:11:00,
2013-07-04 15:22:00,83.0,39.0,-100.00,ENE,75,4.0,9.0,21,0.00,,,0.00,532.000000,,2013-07-04 21:22:00,
2013-07-04 15:32:00,83.0,39.0,-100.00,ENE,75,4.0,9.0,21,0.00,,,0.00,532.000000,,2013-07-04 21:32:00,
2013-07-04 15:53:00,83.0,39.0,-100.00,WNW,292,4.0,9.0,21,0.00,,,0.00,355.000000,,2013-07-04 21:53:00,
2013-07-04 16:02:00,83.0,39.0,-100.00,WNW,292,4.0,9.0,21,0.00,,,0.00,355.000000,,2013-07-04 22:02:00,
2013-07-04 16:11:00,83.0,39.0,-100.00,WNW,292,4.0,9.0,21,0.00,,,0.00,355.000000,,2013-07-04 22:11:00,
2013-07-04 16:22:00,83.0,39.0,-100.00,WNW,292,4.0,9.0,21,0.00,,,0.00,355.000000,,2013-07-04 22:22:00,
2013-07-04 16:33:00,83.0,39.0,-100.00,WNW,292,4.0,9.0,21,0.00,,,0.00,355.000000,,2013-07-04 22:33:00,
2013-07-04 16:52:00,85.0,41.0,-100.00,SE,134,4.0,21.0,21,0.00,,,-99.99,469.000000,,2013-07-04 22:52:00,
2013-07-04 17:01:00,85.0,41.0,-100.00,SE,134,4.0,21.0,21,0.00,,,-99.99,469.000000,,2013-07-04 23:01:00,
2013-07-04 17:12:00,85.0,41.0,-100.00,SE,134,4.0,21.0,21,0.00,,,-99.99,469.000000,,2013-07-04 23:12:00,
2013-07-04 17:23:00,85.0,41.0,-100.00,SE,134,4.0,21.0,21,0.00,,,-99.99,469.000000,,2013-07-04 23:23:00,
2013-07-04 17:33:00,85.0,41.0,-100.00,SE,134,4.0,21.0,21,0.00,,,-99.99,469.000000,,2013-07-04 23:33:00,
2013-07-04 17:52:00,85.0,38.0,-100.00,SSW,209,6.0,14.0,19,0.00,,,0.00,694.000000,,2013-07-04 23:52:00,
2013-07-04 18:01:00,85.0,38.0,-100.00,SSW,209,6.0,14.0,19,0.00,,,0.00,694.000000,,2013-07-05 00:01:00,
2013-07-04 18:11:00,85.0,38.0,-100.00,SSW,209,6.0,14.0,19,0.00,,,0.00,694.000000,,2013-07-05 00:11:00,
2013-07-04 18:22:00,85.0,38.0,-100.00,SSW,209,6.0,14.0,19,0.00,,,0.00,694.000000,,2013-07-05 00:22:00,
2013-07-04 18:32:00,85.0,38.0,-100.00,SSW,209,6.0,14.0,19,0.00,,,0.00,694.000000,,2013-07-05 00:32:00,
2013-07-04 18:52:00,85.0,38.0,-100.00,SSW,198,5.0,12.0,19,0.00,,,0.00,260.000000,,2013-07-05 00:52:00,
2013-07-04 19:01:00,85.0,38.0,-100.00,SSW,198,5.0,12.0,19,0.00,,,0.00,260.000000,,2013-07-05 01:01:00,
2013-07-04 19:11:00,85.0,38.0,-100.00,SSW,198,5.0,12.0,19,0.00,,,0.00,260.000000,,2013-07-05 01:11:00,
2013-07-04 19:22:00,85.0,38.0,-100.00,SSW,198,5.0,12.0,19,0.00,,,0.00,260.000000,,2013-07-05 01:22:00,
2013-07-04 19:32:00,85.0,38.0,-100.00,SSW,198,5.0,12.0,19,0.00,,,0.00,260.000000,,2013-07-05 01:32:00,
2013-07-04 19:52:00,84.0,40.0,-100.00,WSW,253,3.0,12.0,21,0.00,,,0.00,236.000000,,2013-07-05 01:52:00,
2013-07-04 20:02:00,84.0,40.0,-100.00,WSW,253,3.0,12.0,21,0.00,,,0.00,236.000000,,2013-07-05 02:02:00,
2013-07-04 20:11:00,84.0,40.0,-100.00,WSW,253,3.0,12.0,21,0.00,,,0.00,236.000000,,2013-07-05 02:11:00,
2013-07-04 20:21:00,84.0,40.0,-100.00,WSW,253,3.0,12.0,21,0.00,,,0.00,236.000000,,2013-07-05 02:21:00,
2013-07-04 20:32:00,84.0,40.0,-100.00,WSW,253,3.0,12.0,21,0.00,,,0.00,236.000000,,2013-07-05 02:32:00,
2013-07-04 20:52:00,80.0,39.0,-100.00,West,268,4.0,11.0,23,0.00,,,0.00,56.000000,,2013-07-05 02:52:00,
2013-07-04 21:02:00,80.0,39.0,-100.00,West,268,4.0,11.0,23,0.00,,,0.00,56.000000,,2013-07-05 03:02:00,
2013-07-04 21:11:00,80.0,39.0,-100.00,West,268,4.0,11.0,23,0.00,,,0.00,56.000000,,2013-07-05 03:11:00,
2013-07-04 21:22:00,80.0,39.0,-100.00,West,268,4.0,11.0,23,0.00,,,0.00,56.000000,,2013-07-05 03:22:00,
2013-07-04 21:32:00,80.0,39.0,-100.00,West,268,4.0,11.0,23,0.00,,,0.00,56.000000,,2013-07-05 03:32:00,
2013-07-04 21:52:00,78.0,39.0,-100.00,SW,219,1.0,6.0,25,0.00,,,0.00,1.000000,,2013-07-05 03:52:00,
2013-07-04 22:01:00,78.0,39.0,-100.00,SW,219,1.0,6.0,25,0.00,,,0.00,1.000000,,2013-07-05 04:01:00,
2013-07-04 22:11:00,78.0,39.0,-100.00,SW,219,1.0,6.0,25,0.00,,,0.00,1.000000,,2013-07-05 04:11:00,
2013-07-04 22:22:00,78.0,39.0,-100.00,SW,219,1.0,6.0,25,0.00,,,0.00,1.000000,,2013-07-05 04:22:00,
2013-07-04 22:33:00,78.0,39.0,-100.00,SW,219,1.0,6.0,25,0.00,,,0.00,1.000000,,2013-07-05 04:33:00,
2013-07-04 22:53:00,77.0,39.0,-100.00,SW,233,4.0,9.0,26,0.00,,,0.00,0.000000,,2013-07-05 04:53:00,
2013-07-04 23:01:00,77.0,39.0,-100.00,SW,233,4.0,9.0,26,0.00,,,0.00,0.000000,,2013-07-05 05:01:00,
2013-07-04 23:12:00,77.0,39.0,-100.00,SW,233,4.0,9.0,26,0.00,,,0.00,0.000000,,2013-07-05 05:12:00,
2013-07-04 23:22:00,77.0,39.0,-100.00,SW,233,4.0,9.0,26,0.00,,,0.00,0.000000,,2013-07-05 05:22:00,
2013-07-04 23:33:00,77.0,39.0,-100.00,SW,233,4.0,9.0,26,0.00,,,0.00,0.000000,,2013-07-05 05:33:00,
2013-07-04 23:34:00,76.0,40.0,-100.00,SW,236,3.0,8.0,27,0.00,,,0.00,0.000000,,2013-07-05 05:34:00,
2013-07-04 23:52:00,76.0,40.0,-100.00,SW,236,3.0,8.0,27,0.00,,,0.00,0.000000,,2013-07-05 05:52:00,